Time;durP1;ratioP1;P1;durP2;ratioP2;P2;SDS_P1;SDS_P2;PMS_P1;PMS_P2;Temp;Humidity;BMP_temperature;BMP_pressure;BME280_temperature;BME280_humidity;BME280_pressure;Samples;Min_cycle;Max_cycle;Signal;HPM_P1;HPM_P2
2023/05/31 00:01:10;;;;;;;3.60;3.30;;;;;;;20.40;45.41;99517.64;104463;1258;73874;-62
2023/05/31 00:03:40;;;;;;;;;;;;;;;20.41;45.73;99520.42;104328;1261;70083;-61
2023/05/31 00:06:10;;;;;;;3.90;3.00;;;;;;;20.44;46.10;99522.67;104381;1258;72755;-61
2023/05/31 00:08:39;;;;;;;3.60;3.30;;;;;;;20.38;45.75;99523.16;104380;1259;60856;-61
2023/05/31 00:11:07;;;;;;;3.40;3.00;;;;;;;20.38;45.38;99523.55;104536;1258;60437;-61
2023/05/31 00:13:35;;;;;;;3.60;2.80;;;;;;;20.40;45.31;99523.14;104235;1269;73602;-62
2023/05/31 00:16:03;;;;;;;4.00;3.20;;;;;;;20.44;45.65;99526.62;104432;1258;69109;-61
2023/05/31 00:18:30;;;;;;;;;;;;;;;20.47;45.79;99529.39;104459;1254;72491;-61
2023/05/31 00:20:58;;;;;;;;;;;;;;;20.47;46.39;99525.94;104399;1259;60488;-61
2023/05/31 00:23:26;;;;;;;3.20;2.90;;;;;;;20.45;46.29;99529.92;108482;1254;60342;-64
2023/05/31 00:25:54;;;;;;;3.20;2.90;;;;;;;20.37;46.17;99525.40;107421;1256;74003;-63
2023/05/31 00:28:22;;;;;;;2.80;2.60;;;;;;;20.36;46.47;99526.02;104725;1252;68160;-63
2023/05/31 00:30:49;;;;;;;;;;;;;;;20.33;46.20;99528.61;104435;1257;72393;-65
2023/05/31 00:33:17;;;;;;;;;;;;;;;20.33;46.24;99527.71;104431;1259;60872;-64
2023/05/31 00:35:45;;;;;;;;;;;;;;;20.28;45.80;99529.02;104722;1260;60533;-64
2023/05/31 00:38:13;;;;;;;;;;;;;;;20.26;45.63;99530.14;104393;1273;74026;-63
2023/05/31 00:40:41;;;;;;;3.10;2.50;;;;;;;20.19;45.85;99529.90;104359;1268;68215;-63
2023/05/31 00:43:10;;;;;;;3.90;2.70;;;;;;;20.14;45.60;99530.54;104411;1263;71372;-63
2023/05/31 00:45:38;;;;;;;2.80;2.60;;;;;;;20.15;46.04;99536.18;104373;1267;60638;-62
2023/05/31 00:48:06;;;;;;;3.60;2.90;;;;;;;20.16;45.99;99540.71;104282;1267;60460;-62
2023/05/31 00:50:34;;;;;;;;;;;;;;;20.13;45.26;99539.35;104475;1260;74501;-62
2023/05/31 00:53:01;;;;;;;3.30;2.80;;;;;;;20.31;45.29;99536.98;104319;1264;68395;-63
2023/05/31 00:55:29;;;;;;;4.20;2.90;;;;;;;20.28;45.46;99536.50;104354;1266;72376;-63
2023/05/31 00:57:57;;;;;;;2.90;2.70;;;;;;;20.31;46.00;99533.05;104382;1260;60947;-64
2023/05/31 01:00:25;;;;;;;3.20;2.90;;;;;;;20.30;45.59;99537.04;104326;1268;60568;-63
2023/05/31 01:02:53;;;;;;;3.50;3.20;;;;;;;20.01;46.52;99537.17;104390;1269;74556;-65
2023/05/31 01:05:21;;;;;;;;;;;;;;;20.12;46.11;99537.88;104361;1257;70337;-62
2023/05/31 01:07:48;;;;;;;6.50;2.60;;;;;;;20.09;46.74;99540.05;104375;1257;72911;-65
2023/05/31 01:10:19;;;;;;;3.50;3.10;;;;;;;19.97;46.15;99539.98;104309;1257;60558;-62
2023/05/31 01:13:07;;;;;;;3.20;2.90;;;;;;;19.97;46.16;99538.74;104383;1269;60505;-62
2023/05/31 01:15:57;;;;;;;3.60;3.30;;;;;;;19.98;46.32;99532.41;104342;1268;74484;-64
2023/05/31 01:18:32;;;;;;;3.20;3.00;;;;;;;19.96;46.27;99536.38;104527;1252;68246;-64
2023/05/31 01:21:03;;;;;;;3.10;2.80;;;;;;;19.94;45.79;99532.60;108416;1254;72892;-64
2023/05/31 01:23:37;;;;;;;4.20;2.90;;;;;;;19.90;46.20;99538.63;107863;1254;58793;-63
2023/05/31 01:26:33;;;;;;;3.60;3.00;;;;;;;19.85;46.16;99537.11;108030;1253;60637;-63
2023/05/31 01:29:04;;;;;;;6.00;3.30;;;;;;;19.75;47.03;99537.86;108399;1253;72490;-65
2023/05/31 01:31:33;;;;;;;4.90;2.90;;;;;;;19.72;47.26;99540.77;108402;1252;69646;-63
2023/05/31 01:34:02;;;;;;;5.00;3.10;;;;;;;19.70;46.95;99542.58;108257;1252;72434;-63
2023/05/31 01:36:30;;;;;;;3.30;3.10;;;;;;;19.66;46.99;99544.29;107950;1254;60786;-63
2023/05/31 01:38:59;;;;;;;5.80;3.20;;;;;;;19.65;47.01;99544.52;108399;1253;60682;-64
2023/05/31 01:41:29;;;;;;;4.60;3.20;;;;;;;19.65;47.18;99542.97;108091;1252;73663;-64
2023/05/31 01:43:57;;;;;;;;;;;;;;;19.64;47.49;99545.17;108184;1254;70160;-65
2023/05/31 01:46:25;;;;;;;3.10;2.60;;;;;;;19.63;47.31;99543.31;108496;1252;72860;-63
2023/05/31 01:48:53;;;;;;;3.50;2.80;;;;;;;19.59;46.70;99547.84;108473;1252;59855;-63
2023/05/31 01:51:21;;;;;;;3.20;2.90;;;;;;;19.62;46.69;99554.73;108368;1253;60664;-63
2023/05/31 01:53:49;;;;;;;2.90;2.60;;;;;;;19.62;47.11;99556.14;108436;1254;74533;-63
2023/05/31 01:56:16;;;;;;;4.50;3.00;;;;;;;19.60;46.76;99551.31;107900;1252;70025;-64
2023/05/31 01:58:47;;;;;;;;;;;;;;;19.59;46.88;99552.52;108309;1254;73389;-64
2023/05/31 02:01:14;;;;;;;5.50;2.80;;;;;;;19.55;47.56;99550.74;108126;1254;60203;-63
2023/05/31 02:03:42;;;;;;;4.10;3.10;;;;;;;19.46;47.37;99558.89;108246;1253;59762;-65
2023/05/31 02:06:13;;;;;;;;;;;;;;;19.43;47.31;99556.95;108226;1258;73632;-64
2023/05/31 02:08:40;;;;;;;2.60;2.40;;;;;;;19.38;47.24;99557.62;108232;1253;69096;-63
2023/05/31 02:11:08;;;;;;;3.90;3.20;;;;;;;19.32;46.85;99561.98;108348;1254;72330;-63
2023/05/31 02:13:36;;;;;;;3.70;3.20;;;;;;;19.35;46.79;99562.25;108366;1254;60162;-65
2023/05/31 02:16:05;;;;;;;4.50;3.90;;;;;;;19.40;46.30;99567.00;108650;1251;59976;-65
2023/05/31 02:18:33;;;;;;;5.10;3.80;;;;;;;19.47;46.39;99572.70;108473;1252;74520;-63
2023/05/31 02:21:00;;;;;;;4.20;3.80;;;;;;;19.56;46.48;99574.25;108537;1253;69367;-63
2023/05/31 02:23:29;;;;;;;4.30;3.50;;;;;;;19.62;46.22;99572.15;108282;1254;72357;-64
2023/05/31 02:25:56;;;;;;;;;;;;;;;19.68;46.31;99574.02;108323;1253;59774;-65
2023/05/31 02:28:24;;;;;;;4.20;3.60;;;;;;;19.72;46.17;99571.73;108221;1254;58663;-63
2023/05/31 02:30:56;;;;;;;5.30;3.70;;;;;;;19.71;45.89;99573.58;108412;1254;72757;-63
2023/05/31 02:33:24;;;;;;;4.90;3.90;;;;;;;19.72;45.98;99570.64;108425;1253;69369;-64
2023/05/31 02:35:51;;;;;;;5.80;4.30;;;;;;;19.78;45.76;99569.43;108420;1254;72387;-63
2023/05/31 02:38:20;;;;;;;5.40;4.70;;;;;;;19.85;45.81;99573.20;108400;1252;59934;-63
2023/05/31 02:40:47;;;;;;;4.20;3.80;;;;;;;19.86;46.19;99573.31;108600;1253;58945;-63
2023/05/31 02:43:15;;;;;;;6.90;4.50;;;;;;;19.86;46.45;99573.67;108389;1252;74624;-63
2023/05/31 02:45:43;;;;;;;;;;;;;;;19.86;46.56;99571.35;108394;1253;69728;-64
2023/05/31 02:48:11;;;;;;;4.60;3.90;;;;;;;19.84;46.75;99573.39;108635;1251;72360;-66
2023/05/31 02:50:40;;;;;;;4.40;4.00;;;;;;;19.80;46.81;99587.30;108455;1254;59976;-64
2023/05/31 02:53:20;;;;;;;7.30;4.50;;;;;;;19.80;46.63;99584.05;108375;1256;59674;-64
2023/05/31 02:56:11;;;;;;;5.40;4.30;;;;;;;19.83;47.02;99590.90;108420;1252;73869;-62
2023/05/31 02:59:05;;;;;;;4.60;4.20;;;;;;;19.81;46.85;99601.92;108540;1252;68250;-62
2023/05/31 03:01:36;;;;;;;6.20;5.00;;;;;;;19.80;46.31;99600.09;108591;1253;72426;-62
2023/05/31 03:04:31;;;;;;;7.00;5.10;;;;;;;19.81;46.47;99607.06;108328;1254;59960;-61
2023/05/31 03:06:58;;;;;;;5.20;4.70;;;;;;;19.81;46.53;99609.93;108318;1253;60219;-62
2023/05/31 03:09:28;;;;;;;7.80;5.40;;;;;;;19.81;46.75;99609.08;108487;1253;73558;-62
2023/05/31 03:11:56;;;;;;;;;;;;;;;19.79;46.79;99611.15;108385;1253;69861;-62
2023/05/31 03:14:23;;;;;;;5.40;4.60;;;;;;;19.78;46.94;99609.52;108425;1252;72521;-64
2023/05/31 03:16:53;;;;;;;5.70;5.10;;;;;;;19.77;47.37;99615.05;108361;1253;60449;-62
2023/05/31 03:19:22;;;;;;;6.00;5.30;;;;;;;19.80;47.19;99617.33;108574;1253;60506;-62
2023/05/31 03:21:52;;;;;;;5.70;5.10;;;;;;;19.81;47.39;99607.27;108340;1254;72505;-62
2023/05/31 03:24:20;;;;;;;6.50;5.20;;;;;;;19.84;47.54;99610.80;108499;1253;68072;-62
2023/05/31 03:26:50;;;;;;;5.80;5.20;;;;;;;19.84;48.10;99615.54;108126;1254;72216;-62
2023/05/31 03:29:18;;;;;;;6.70;5.20;;;;;;;19.88;47.81;99616.67;108171;1254;60301;-63
2023/05/31 03:31:46;;;;;;;8.70;5.40;;;;;;;19.93;48.05;99611.83;108359;1252;60101;-63
2023/05/31 03:34:14;;;;;;;;;;;;;;;20.02;47.80;99611.48;108342;1254;74070;-62
2023/05/31 03:36:42;;;;;;;;;;;;;;;20.12;48.17;99612.91;108170;1252;69632;-63
2023/05/31 03:39:36;;;;;;;5.70;4.30;;;;;;;20.19;48.42;99610.88;108423;1254;72914;-62
2023/05/31 03:42:05;;;;;;;5.60;4.90;;;;;;;20.23;48.50;99608.11;108524;1253;60432;-62
2023/05/31 03:44:33;;;;;;;6.10;5.50;;;;;;;20.28;49.03;99613.24;108362;1253;58720;-62
2023/05/31 03:47:01;;;;;;;6.70;5.30;;;;;;;20.26;48.76;99623.18;108450;1251;74052;-62
2023/05/31 03:49:28;;;;;;;;;;;;;;;20.22;49.04;99626.48;108467;1252;70042;-62
2023/05/31 03:51:56;;;;;;;;;;;;;;;20.29;49.15;99629.86;108653;1252;72499;-62
2023/05/31 03:54:24;;;;;;;;;;;;;;;20.38;49.06;99632.10;108451;1254;60290;-62
2023/05/31 03:56:52;;;;;;;4.70;4.30;;;;;;;20.47;48.72;99637.08;108456;1253;59426;-62
2023/05/31 03:59:20;;;;;;;7.00;5.10;;;;;;;20.51;48.45;99637.98;108503;1254;74023;-62
2023/05/31 04:01:47;;;;;;;;;;;;;;;20.62;48.67;99640.41;108214;1254;69142;-62
2023/05/31 04:04:15;;;;;;;7.20;4.80;;;;;;;20.73;49.99;99643.42;108294;1254;72335;-63
2023/05/31 04:06:43;;;;;;;;;;;;;;;20.79;49.37;99644.87;108184;1253;59797;-63
2023/05/31 04:09:28;;;;;;;5.60;4.10;;;;;;;20.94;49.83;99645.92;108417;1252;60472;-64
2023/05/31 04:11:57;;;;;;;5.40;4.90;;;;;;;21.01;49.52;99647.81;108227;1254;74024;-63
2023/05/31 04:14:25;;;;;;;;;;;;;;;21.10;49.62;99645.77;108442;1252;69122;-63
2023/05/31 04:16:53;;;;;;;;;;;;;;;21.23;50.77;99644.91;108452;1253;72436;-63
2023/05/31 04:19:20;;;;;;;;;;;;;;;21.33;50.76;99643.83;108528;1254;60162;-63
2023/05/31 04:21:48;;;;;;;5.20;3.90;;;;;;;21.43;51.94;99648.44;108422;1254;58423;-63
2023/05/31 04:24:17;;;;;;;6.00;4.20;;;;;;;21.48;50.83;99651.95;108333;1253;73711;-63
2023/05/31 04:26:46;;;;;;;5.60;4.00;;;;;;;21.56;50.05;99653.23;108193;1252;70055;-64
2023/05/31 04:29:13;;;;;;;;;;;;;;;21.63;50.70;99657.61;108393;1251;72975;-63
2023/05/31 04:31:43;;;;;;;5.80;3.70;;;;;;;21.69;50.72;99660.30;108189;1254;61641;-64
2023/05/31 04:34:21;;;;;;;9.10;3.50;;;;;;;21.70;50.15;99663.19;108248;1252;59845;-64
2023/05/31 04:36:51;;;;;;;6.00;3.50;;;;;;;21.80;50.10;99662.14;108283;1254;73674;-62
2023/05/31 04:39:22;;;;;;;5.30;3.30;;;;;;;21.87;49.61;99659.42;108417;1253;69213;-63
2023/05/31 04:41:52;;;;;;;3.40;3.10;;;;;;;21.89;49.40;99664.21;108471;1253;73168;-62
2023/05/31 04:44:20;;;;;;;5.40;3.00;;;;;;;21.98;49.48;99663.61;108389;1253;61467;-61
2023/05/31 04:46:49;;;;;;;3.00;2.70;;;;;;;22.11;48.84;99666.02;108415;1253;60868;-61
2023/05/31 04:49:16;;;;;;;;;;;;;;;22.26;48.72;99667.52;108462;1252;73673;-61
2023/05/31 04:51:44;;;;;;;3.70;2.70;;;;;;;22.38;48.37;99664.30;108338;1252;69036;-61
2023/05/31 04:54:12;;;;;;;2.90;2.60;;;;;;;22.43;48.32;99664.33;108417;1253;72905;-61
2023/05/31 04:56:40;;;;;;;3.30;2.60;;;;;;;22.53;48.03;99667.94;108512;1252;61790;-60
2023/05/31 04:59:08;;;;;;;;;;;;;;;22.65;47.51;99665.73;108470;1254;59845;-61
2023/05/31 05:01:37;;;;;;;4.30;2.60;;;;;;;22.84;47.58;99673.79;108352;1252;73679;-61
2023/05/31 05:04:09;;;;;;;4.00;2.10;;;;;;;22.94;47.65;99673.03;108467;1252;69387;-61
2023/05/31 05:06:40;;;;;;;3.90;2.60;;;;;;;23.07;47.50;99677.19;108390;1254;73387;-59
2023/05/31 05:09:09;;;;;;;3.80;2.20;;;;;;;23.22;46.72;99677.05;108596;1253;59582;-60
2023/05/31 05:11:37;;;;;;;6.90;2.60;;;;;;;23.37;46.26;99679.88;108496;1252;59667;-60
2023/05/31 05:14:05;;;;;;;;;;;;;;;23.48;46.36;99679.70;108474;1252;74281;-60
2023/05/31 05:16:32;;;;;;;2.90;2.50;;;;;;;23.58;45.85;99680.18;108569;1254;69572;-60
2023/05/31 05:19:00;;;;;;;5.10;2.20;;;;;;;23.57;45.27;99685.67;108359;1254;72437;-60
2023/05/31 05:21:30;;;;;;;2.60;2.10;;;;;;;23.56;45.34;99689.86;108423;1253;59783;-61
2023/05/31 05:23:58;;;;;;;8.10;2.10;;;;;;;23.58;45.37;99689.85;108417;1252;59805;-61
2023/05/31 05:26:27;;;;;;;6.10;2.50;;;;;;;23.60;45.44;99696.61;108326;1253;74562;-61
2023/05/31 05:28:55;;;;;;;3.30;2.50;;;;;;;23.59;45.69;99698.86;108221;1256;69047;-61
2023/05/31 05:31:23;;;;;;;;;;;;;;;23.60;45.52;99699.64;108236;1252;71541;-60
2023/05/31 05:33:53;;;;;;;2.60;2.40;;;;;;;23.60;45.23;99707.21;108276;1254;60232;-60
2023/05/31 05:36:21;;;;;;;2.50;2.20;;;;;;;23.57;45.27;99707.14;108221;1255;59745;-60
2023/05/31 05:38:51;;;;;;;2.60;2.30;;;;;;;23.58;45.19;99709.02;108225;1252;74067;-60
2023/05/31 05:41:19;;;;;;;2.50;2.20;;;;;;;23.59;45.11;99704.11;108244;1252;69074;-60
2023/05/31 05:43:46;;;;;;;4.20;2.10;;;;;;;23.62;44.99;99704.14;108420;1254;318968;-66
2023/05/31 05:47:35;;;;;;;3.10;2.20;;;;;;;23.09;47.51;99703.77;101499;1303;601567;-60
2023/05/31 05:50:05;;;;;;;3.10;2.50;;;;;;;23.99;44.48;99699.49;103435;1267;59241;-59
2023/05/31 05:52:33;;;;;;;2.60;2.40;;;;;;;24.06;43.91;99694.36;103440;1267;60718;-60
2023/05/31 05:55:01;;;;;;;2.50;2.10;;;;;;;24.12;43.91;99692.55;103498;1272;72187;-59
2023/05/31 05:57:29;;;;;;;2.30;2.10;;;;;;;24.25;43.89;99689.09;103654;1269;68828;-59
2023/05/31 06:00:10;;;;;;;3.20;2.30;;;;;;;24.36;43.73;99689.42;103396;1266;231910;-60
2023/05/31 06:02:40;;;;;;;3.30;2.20;;;;;;;24.40;43.39;99690.95;103944;1264;59782;-59
2023/05/31 06:05:08;;;;;;;3.50;2.00;;;;;;;24.45;43.33;99696.25;106175;1262;59657;-60
2023/05/31 06:07:36;;;;;;;3.70;2.20;;;;;;;24.55;42.94;99699.37;104558;1259;72260;-59
2023/05/31 06:10:04;;;;;;;2.70;2.30;;;;;;;24.63;43.03;99704.29;104155;1260;70785;-59
2023/05/31 06:12:33;;;;;;;4.60;2.10;;;;;;;24.69;42.52;99701.04;104831;1257;72364;-59
2023/05/31 06:15:01;;;;;;;22.80;4.60;;;;;;;24.74;42.33;99702.07;104598;1256;59901;-59
2023/05/31 06:17:29;;;;;;;56.80;11.30;;;;;;;24.72;42.69;99706.64;104230;1269;61098;-59
2023/05/31 06:19:57;;;;;;;;;;;;;;;24.72;42.89;99704.80;104082;1267;71988;-60
2023/05/31 06:22:25;;;;;;;;;;;;;;;24.85;42.93;99707.29;104148;1254;69244;-59
2023/05/31 06:24:54;;;;;;;17.60;5.60;;;;;;;24.97;42.89;99705.36;104205;1261;73389;-60
2023/05/31 06:27:21;;;;;;;7.40;3.50;;;;;;;24.99;42.83;99705.86;105307;1254;59773;-59
2023/05/31 06:29:54;;;;;;;6.70;2.50;;;;;;;25.10;42.84;99706.86;107769;1253;59173;-61
2023/05/31 06:32:35;;;;;;;2.80;2.10;;;;;;;25.23;42.75;99710.20;104648;1255;72906;-59
2023/05/31 06:35:06;;;;;;;2.70;2.30;;;;;;;25.29;42.12;99715.57;104776;1260;69885;-59
2023/05/31 06:37:33;;;;;;;3.20;2.30;;;;;;;25.31;42.30;99712.24;104247;1261;73344;-60
2023/05/31 06:40:02;;;;;;;;;;;;;;;25.39;41.87;99713.40;104356;1259;60187;-59
2023/05/31 06:42:30;;;;;;;1.90;1.70;;;;;;;25.46;41.56;99713.75;104188;1262;59577;-59
2023/05/31 06:44:58;;;;;;;2.90;2.10;;;;;;;25.45;41.68;99713.67;104447;1258;71799;-60
2023/05/31 06:47:45;;;;;;;3.60;1.70;;;;;;;25.57;41.41;99714.60;104417;1260;69096;-60
2023/05/31 06:50:15;;;;;;;2.70;2.00;;;;;;;25.66;41.41;99717.61;104180;1261;72396;-58
2023/05/31 06:52:46;;;;;;;1.70;1.60;;;;;;;25.72;40.79;99718.63;104243;1261;59754;-59
2023/05/31 06:55:30;;;;;;;2.00;1.90;;;;;;;25.82;40.75;99718.39;104014;1255;63872;-59
2023/05/31 06:57:59;;;;;;;4.90;2.20;;;;;;;25.91;40.39;99714.16;104240;1257;72894;-59
2023/05/31 07:00:29;;;;;;;5.00;2.30;;;;;;;25.98;40.77;99713.75;104132;1268;69586;-60
2023/05/31 07:02:56;;;;;;;3.40;2.30;;;;;;;26.07;40.56;99716.59;104344;1261;72858;-59
2023/05/31 07:05:25;;;;;;;3.90;1.90;;;;;;;26.17;40.30;99713.02;104123;1257;59810;-60
2023/05/31 07:07:53;;;;;;;2.50;2.20;;;;;;;26.20;39.64;99711.77;104074;1257;60102;-60
2023/05/31 07:10:22;;;;;;;2.20;2.00;;;;;;;26.23;39.77;99709.98;104114;1262;73677;-59
2023/05/31 07:12:50;;;;;;;5.50;2.00;;;;;;;26.27;39.74;99709.19;104023;1257;69150;-60
2023/05/31 07:15:18;;;;;;;5.00;2.20;;;;;;;26.32;39.28;99710.10;104322;1259;72855;-60
2023/05/31 07:17:46;;;;;;;;;;;;;;;26.41;39.27;99705.52;104350;1259;60778;-60
2023/05/31 07:20:14;;;;;;;3.50;2.00;;;;;;;26.48;38.27;99704.60;104474;1255;59769;-59
2023/05/31 07:22:42;;;;;;;4.40;2.00;;;;;;;26.50;39.01;99707.42;104378;1266;73864;-61
2023/05/31 07:25:10;;;;;;;;;;;;;;;26.59;39.05;99703.45;104328;1256;69380;-60
2023/05/31 07:27:37;;;;;;;;;;;;;;;26.64;38.59;99702.73;104402;1257;73134;-60
2023/05/31 07:30:05;;;;;;;3.90;2.00;;;;;;;26.71;38.27;99702.14;106410;1250;59779;-61
2023/05/31 07:32:33;;;;;;;3.20;2.00;;;;;;;26.75;37.72;99708.39;106383;1252;59790;-61
2023/05/31 07:35:03;;;;;;;4.90;1.90;;;;;;;26.75;37.63;99705.75;104479;1259;73310;-60
2023/05/31 07:37:34;;;;;;;4.10;2.10;;;;;;;26.80;37.36;99708.17;104577;1257;69139;-60
2023/05/31 07:40:04;;;;;;;3.30;2.20;;;;;;;26.86;36.74;99710.90;105056;1257;71610;-61
2023/05/31 07:42:33;;;;;;;2.20;1.80;;;;;;;26.95;36.74;99712.12;104577;1254;59771;-61
2023/05/31 07:45:00;;;;;;;2.30;1.90;;;;;;;27.04;37.11;99708.90;104460;1252;59725;-60
2023/05/31 07:47:29;;;;;;;2.60;1.80;;;;;;;27.18;37.17;99707.53;104314;1259;73593;-59
2023/05/31 07:49:57;;;;;;;1.90;1.70;;;;;;;27.33;36.97;99705.33;104367;1251;69198;-60
2023/05/31 07:52:24;;;;;;;3.20;2.00;;;;;;;27.46;36.54;99707.13;104307;1252;71477;-60
2023/05/31 07:54:52;;;;;;;2.80;2.10;;;;;;;27.56;36.79;99707.20;104519;1253;59689;-61
2023/05/31 07:57:20;;;;;;;2.80;1.60;;;;;;;27.66;36.60;99706.73;104617;1253;60037;-60
2023/05/31 07:59:49;;;;;;;2.30;1.90;;;;;;;27.67;36.53;99705.25;104367;1254;72872;-60
2023/05/31 08:02:17;;;;;;;1.70;1.60;;;;;;;27.69;35.74;99704.69;104417;1257;69060;-60
2023/05/31 08:04:44;;;;;;;3.70;1.90;;;;;;;27.81;36.47;99707.88;104388;1254;73358;-60
2023/05/31 08:07:12;;;;;;;;;;;;;;;27.83;35.75;99707.42;104277;1251;59838;-60
2023/05/31 08:09:40;;;;;;;3.10;2.00;;;;;;;27.83;35.67;99709.08;104438;1253;59726;-60
2023/05/31 08:12:08;;;;;;;;;;;;;;;27.87;36.12;99712.21;104431;1257;72890;-60
2023/05/31 08:14:36;;;;;;;2.40;2.00;;;;;;;28.00;35.76;99707.20;104409;1259;69289;-58
2023/05/31 08:17:04;;;;;;;;;;;;;;;27.94;35.57;99707.98;104432;1253;72538;-60
2023/05/31 08:19:32;;;;;;;2.00;1.80;;;;;;;28.08;35.91;99709.08;104589;1253;59773;-60
2023/05/31 08:21:59;;;;;;;3.60;2.00;;;;;;;28.17;35.56;99714.07;104428;1256;59831;-59
2023/05/31 08:24:28;;;;;;;3.40;2.30;;;;;;;28.25;35.21;99713.23;104668;1259;72877;-60
2023/05/31 08:26:56;;;;;;;6.20;2.10;;;;;;;28.32;35.42;99712.81;104379;1260;70475;-59
2023/05/31 08:29:24;;;;;;;3.20;2.10;;;;;;;28.41;35.31;99714.23;104448;1257;71376;-60
2023/05/31 08:31:52;;;;;;;4.40;1.90;;;;;;;28.47;35.33;99709.41;108288;1252;60421;-60
2023/05/31 08:34:19;;;;;;;2.40;2.10;;;;;;;28.56;35.38;99710.71;104666;1252;60038;-61
2023/05/31 08:36:47;;;;;;;3.30;2.30;;;;;;;28.59;34.95;99707.76;104626;1259;73241;-59
2023/05/31 08:39:15;;;;;;;3.60;2.20;;;;;;;28.64;35.04;99709.52;105097;1257;69555;-59
2023/05/31 08:41:49;;;;;;;3.00;2.30;;;;;;;28.72;35.15;99707.75;104751;1257;71649;-59
2023/05/31 08:44:17;;;;;;;2.50;2.10;;;;;;;28.84;34.02;99711.27;104416;1259;60542;-59
2023/05/31 08:46:46;;;;;;;;;;;;;;;28.87;33.89;99708.00;104549;1262;60834;-60
2023/05/31 08:49:16;;;;;;;3.40;1.80;;;;;;;28.90;33.69;99711.09;104637;1258;73471;-59
2023/05/31 08:51:45;;;;;;;7.60;1.70;;;;;;;28.92;33.50;99712.77;104953;1252;69083;-59
2023/05/31 08:54:14;;;;;;;5.40;1.70;;;;;;;29.03;33.44;99703.23;104587;1258;72926;-59
2023/05/31 08:56:41;;;;;;;;;;;;;;;29.11;33.04;99705.33;104600;1255;60180;-59
2023/05/31 08:59:17;;;;;;;5.80;1.70;;;;;;;29.16;31.84;99707.48;104903;1252;59623;-59
2023/05/31 09:01:45;;;;;;;8.50;2.10;;;;;;;29.03;32.55;99708.23;104373;1259;72951;-59
2023/05/31 09:04:16;;;;;;;3.80;1.60;;;;;;;29.00;32.77;99705.92;104675;1255;69214;-59
2023/05/31 09:06:43;;;;;;;4.00;1.80;;;;;;;28.96;31.40;99703.19;104478;1259;72326;-59
2023/05/31 09:09:11;;;;;;;3.30;1.50;;;;;;;28.95;30.91;99702.02;104396;1258;59882;-59
2023/05/31 09:11:40;;;;;;;;;;;;;;;28.99;31.53;99705.66;105011;1254;59845;-59
2023/05/31 09:14:08;;;;;;;4.30;1.50;;;;;;;29.12;30.96;99707.00;104527;1253;72833;-59
2023/05/31 09:16:36;;;;;;;5.60;2.70;;;;;;;29.14;30.45;99704.24;104768;1256;69133;-59
2023/05/31 09:19:05;;;;;;;2.40;1.40;;;;;;;29.17;30.06;99705.72;104686;1254;72284;-59
2023/05/31 09:21:39;;;;;;;2.30;1.50;;;;;;;29.20;29.25;99707.17;104578;1254;59804;-60
2023/05/31 09:24:07;;;;;;;3.60;1.70;;;;;;;29.22;29.50;99710.50;104418;1273;60239;-59
2023/05/31 09:26:38;;;;;;;;;;;;;;;29.23;28.67;99705.96;104481;1265;72810;-59
2023/05/31 09:29:06;;;;;;;2.80;1.40;;;;;;;29.30;28.97;99706.36;104560;1259;69643;-60
2023/05/31 09:31:34;;;;;;;3.70;1.90;;;;;;;29.38;29.23;99706.06;108240;1252;72519;-60
2023/05/31 09:34:01;;;;;;;2.10;1.50;;;;;;;29.43;27.76;99707.77;106334;1252;60170;-61
2023/05/31 09:36:31;;;;;;;5.00;1.70;;;;;;;29.39;27.47;99707.58;104963;1255;60381;-60
2023/05/31 09:39:08;;;;;;;3.30;1.50;;;;;;;29.38;27.90;99706.75;104902;1255;73730;-60
2023/05/31 09:41:36;;;;;;;4.90;1.60;;;;;;;29.43;27.89;99706.73;104457;1259;68139;-60
2023/05/31 09:44:03;;;;;;;4.70;1.50;;;;;;;29.48;27.37;99705.00;104728;1254;71143;-60
2023/05/31 09:46:31;;;;;;;;;;;;;;;29.48;26.58;99706.27;104387;1253;60092;-59
2023/05/31 09:49:03;;;;;;;4.00;1.50;;;;;;;29.53;26.75;99703.50;104409;1257;59845;-60
2023/05/31 09:51:32;;;;;;;3.60;1.50;;;;;;;29.57;27.48;99701.45;104384;1275;72962;-60
2023/05/31 09:54:01;;;;;;;7.30;1.40;;;;;;;29.67;26.75;99703.52;104364;1259;68297;-61
2023/05/31 09:56:29;;;;;;;2.10;1.10;;;;;;;29.82;26.69;99698.39;104420;1258;73289;-60
2023/05/31 09:58:59;;;;;;;2.10;1.50;;;;;;;29.92;26.60;99695.05;104464;1270;60563;-60
2023/05/31 10:01:26;;;;;;;4.30;1.40;;;;;;;29.87;26.22;99693.83;104168;1261;60557;-60
2023/05/31 10:03:55;;;;;;;;;;;;;;;29.84;26.11;99691.66;104799;1255;73622;-62
2023/05/31 10:06:22;;;;;;;2.60;1.60;;;;;;;29.89;26.04;99687.60;104960;1253;69809;-60
2023/05/31 10:08:50;;;;;;;2.80;1.40;;;;;;;29.85;26.36;99688.02;104386;1269;72415;-59
2023/05/31 10:11:21;;;;;;;2.20;1.40;;;;;;;29.89;26.14;99694.65;107967;1255;61040;-60
2023/05/31 10:13:50;;;;;;;4.40;1.40;;;;;;;29.92;26.37;99699.56;106593;1253;60400;-60
2023/05/31 10:16:18;;;;;;;4.20;1.60;;;;;;;29.91;25.87;99696.83;104557;1253;74157;-60
2023/05/31 10:18:46;;;;;;;2.60;1.60;;;;;;;29.84;24.97;99690.50;104766;1258;69580;-61
2023/05/31 10:21:24;;;;;;;2.90;1.40;;;;;;;29.74;25.76;99692.57;104902;1259;72403;-59
2023/05/31 10:24:04;;;;;;;2.50;1.40;;;;;;;29.79;26.13;99683.43;104801;1258;60558;-60
2023/05/31 10:26:36;;;;;;;2.10;1.60;;;;;;;30.01;26.00;99682.10;104443;1251;60447;-62
2023/05/31 10:29:23;;;;;;;2.70;1.40;;;;;;;30.15;25.76;99675.55;104545;1259;74280;-60
2023/05/31 10:31:51;;;;;;;6.20;1.70;;;;;;;30.23;25.64;99679.52;108328;1252;69578;-60
2023/05/31 10:34:20;;;;;;;;;;;;;;;30.28;25.88;99681.53;107028;1255;72344;-60
2023/05/31 10:36:54;;;;;;;2.20;1.20;;;;;;;30.35;25.52;99684.34;104699;1253;60444;-60
2023/05/31 10:39:28;;;;;;;3.70;1.50;;;;;;;30.29;25.59;99679.87;104639;1254;60517;-61
2023/05/31 10:42:07;;;;;;;2.90;1.30;;;;;;;30.27;25.72;99681.37;104826;1252;73697;-60
2023/05/31 10:45:10;;;;;;;1.60;1.40;;;;;;;30.38;25.52;99683.94;104889;1256;69433;-60
2023/05/31 10:48:16;;;;;;;1.60;1.20;;;;;;;30.58;25.67;99675.04;104035;1260;72848;-59
2023/05/31 10:50:53;;;;;;;3.00;1.60;;;;;;;30.69;25.43;99676.67;104450;1253;60729;-59
2023/05/31 10:53:21;;;;;;;4.70;1.50;;;;;;;30.59;25.10;99675.05;104347;1254;60464;-59
2023/05/31 10:55:49;;;;;;;;;;;;;;;30.42;25.49;99676.86;104327;1259;73577;-60
2023/05/31 10:58:25;;;;;;;3.00;1.20;;;;;;;30.44;25.40;99676.58;104459;1269;70225;-60
2023/05/31 11:00:57;;;;;;;1.90;1.50;;;;;;;30.49;25.27;99675.65;104382;1271;72927;-60
2023/05/31 11:03:27;;;;;;;2.80;1.30;;;;;;;30.52;25.22;99669.48;104444;1255;60534;-59
2023/05/31 11:06:05;;;;;;;1.80;1.40;;;;;;;30.65;25.40;99672.72;104317;1254;60591;-59
2023/05/31 11:08:33;;;;;;;2.10;1.30;;;;;;;30.57;25.18;99678.82;104324;1264;73724;-59
2023/05/31 11:11:26;;;;;;;4.80;1.50;;;;;;;30.31;25.07;99678.27;104405;1267;70015;-59
2023/05/31 11:14:01;;;;;;;1.90;1.40;;;;;;;30.11;26.07;99680.59;104295;1261;72349;-59
2023/05/31 11:16:33;;;;;;;1.50;1.20;;;;;;;30.05;25.73;99679.86;104921;1253;60566;-59
2023/05/31 11:19:03;;;;;;;1.60;1.20;;;;;;;30.03;25.91;99678.25;104552;1254;60962;-59
2023/05/31 11:21:46;;;;;;;1.20;1.10;;;;;;;30.07;25.72;99673.21;104571;1266;73013;-61
2023/05/31 11:24:30;;;;;;;1.70;1.50;;;;;;;30.03;25.69;99673.42;104586;1253;68482;-59
2023/05/31 11:27:01;;;;;;;1.70;1.50;;;;;;;30.21;25.72;99663.55;104259;1267;71756;-61
2023/05/31 11:29:44;;;;;;;2.20;1.30;;;;;;;30.45;25.80;99664.36;104740;1254;60764;-60
2023/05/31 11:32:16;;;;;;;1.40;1.20;;;;;;;30.63;25.20;99669.15;108061;1252;60084;-60
2023/05/31 11:34:53;;;;;;;3.10;1.30;;;;;;;30.78;25.05;99665.61;107617;1253;73622;-60
2023/05/31 11:37:28;;;;;;;2.00;1.20;;;;;;;30.83;24.08;99664.19;104833;1269;69064;-60
2023/05/31 11:39:59;;;;;;;1.60;1.30;;;;;;;30.74;23.75;99655.76;104868;1272;72435;-60
2023/05/31 11:42:31;;;;;;;1.80;1.20;;;;;;;30.67;24.26;99655.91;104692;1256;60630;-59
2023/05/31 11:45:06;;;;;;;2.50;1.10;;;;;;;30.74;25.00;99664.28;104592;1253;60643;-60
2023/05/31 11:47:52;;;;;;;4.00;1.60;;;;;;;30.83;24.84;99665.39;104709;1258;73702;-59
2023/05/31 11:50:20;;;;;;;3.40;1.30;;;;;;;30.80;24.28;99654.69;104622;1258;69062;-60
2023/05/31 11:52:48;;;;;;;1.90;1.20;;;;;;;30.85;23.74;99657.35;104541;1254;72653;-60